createdAt,value
2023-04-22T00:00:45.765Z,7.78
2023-04-22T00:03:18.784Z,7.70
2023-04-22T00:05:47.500Z,6.72
2023-04-22T00:08:15.866Z,8.20
2023-04-22T00:10:43.965Z,8.27
2023-04-22T00:13:12.543Z,8.80
2023-04-22T00:15:40.514Z,8.20
2023-04-22T00:18:14.157Z,6.90
2023-04-22T00:20:45.845Z,7.65
2023-04-22T00:23:14.115Z,9.52
2023-04-22T00:25:42.153Z,12.15
2023-04-22T00:28:10.521Z,21.08
2023-04-22T00:30:38.642Z,20.73
2023-04-22T00:33:07.073Z,22.98
2023-04-22T00:35:35.229Z,32.20
2023-04-22T00:38:03.590Z,47.20
2023-04-22T00:40:31.632Z,52.10
2023-04-22T00:43:00.412Z,38.97
2023-04-22T00:45:28.788Z,27.00
2023-04-22T00:47:57.533Z,27.90
2023-04-22T00:50:25.839Z,36.22
2023-04-22T00:52:54.190Z,33.75
2023-04-22T00:55:22.731Z,45.45
2023-04-22T00:57:51.942Z,30.40
2023-04-22T01:00:24.190Z,22.02
2023-04-22T01:02:52.977Z,24.20
2023-04-22T01:05:21.993Z,25.35
2023-04-22T01:07:51.260Z,29.52
2023-04-22T01:10:19.902Z,30.50
2023-04-22T01:12:48.514Z,31.20
2023-04-22T01:15:16.554Z,33.53
2023-04-22T01:17:46.137Z,27.85
2023-04-22T01:20:14.153Z,30.35
2023-04-22T01:22:45.583Z,25.55
2023-04-22T01:25:13.591Z,30.83
2023-04-22T01:27:42.354Z,29.52
2023-04-22T01:30:12.497Z,25.10
2023-04-22T01:32:42.219Z,25.17
2023-04-22T01:35:11.316Z,23.88
2023-04-22T01:37:40.233Z,22.80
2023-04-22T01:40:10.126Z,22.75
2023-04-22T01:42:39.069Z,28.35
2023-04-22T01:45:07.882Z,28.23
2023-04-22T01:47:36.182Z,21.30
2023-04-22T01:50:04.433Z,21.95
2023-04-22T01:52:33.170Z,21.42
2023-04-22T01:55:01.939Z,21.23
2023-04-22T01:57:30.321Z,23.35
2023-04-22T01:59:58.595Z,24.27
2023-04-22T02:02:27.354Z,26.45
2023-04-22T02:04:55.539Z,27.00
2023-04-22T02:07:24.182Z,23.52
2023-04-22T02:09:52.621Z,22.02
2023-04-22T02:12:20.990Z,24.85
2023-04-22T02:14:49.143Z,23.75
2023-04-22T02:17:18.004Z,26.05
2023-04-22T02:19:47.488Z,26.40
2023-04-22T02:22:15.835Z,24.85
2023-04-22T02:24:43.917Z,24.65
2023-04-22T02:27:12.186Z,32.30
2023-04-22T02:29:40.499Z,32.55
2023-04-22T02:32:09.625Z,33.60
2023-04-22T02:34:38.351Z,29.38
2023-04-22T02:37:06.883Z,27.85
2023-04-22T02:39:35.411Z,24.77
2023-04-22T02:42:03.884Z,22.38
2023-04-22T02:44:31.892Z,19.98
2023-04-22T02:47:00.384Z,18.02
2023-04-22T02:49:28.562Z,14.63
2023-04-22T02:51:57.729Z,12.30
2023-04-22T02:54:26.145Z,11.38
2023-04-22T02:56:54.303Z,11.32
2023-04-22T02:59:22.458Z,10.85
2023-04-22T03:01:50.952Z,10.05
2023-04-22T03:04:33.803Z,10.60
2023-04-22T03:07:02.243Z,10.52
2023-04-22T03:09:30.542Z,10.02
2023-04-22T03:11:59.136Z,10.50
2023-04-22T03:14:27.304Z,9.48
2023-04-22T03:16:56.384Z,9.30
2023-04-22T03:19:24.867Z,10.60
2023-04-22T03:21:53.149Z,12.00
2023-04-22T03:24:22.012Z,9.30
2023-04-22T03:26:53.452Z,9.90
2023-04-22T03:29:21.848Z,9.13
2023-04-22T03:31:50.361Z,9.45
2023-04-22T03:34:19.110Z,10.40
2023-04-22T03:36:47.525Z,11.85
2023-04-22T03:39:15.566Z,9.23
2023-04-22T03:41:45.970Z,10.52
2023-04-22T03:44:14.319Z,11.55
2023-04-22T03:46:42.968Z,10.77
2023-04-22T03:49:18.780Z,8.30
2023-04-22T03:51:47.196Z,8.40
2023-04-22T03:54:19.517Z,7.43
2023-04-22T03:56:52.146Z,7.93
2023-04-22T03:59:22.353Z,7.75
2023-04-22T04:01:53.856Z,7.40
2023-04-22T04:04:26.724Z,7.75
2023-04-22T04:07:02.013Z,8.10
2023-04-22T04:09:30.810Z,7.50
2023-04-22T04:11:59.508Z,7.50
2023-04-22T04:14:32.061Z,8.68
2023-04-22T04:17:00.750Z,8.48
2023-04-22T04:19:32.012Z,8.82
2023-04-22T04:22:01.867Z,7.90
2023-04-22T04:24:36.799Z,8.52
2023-04-22T04:27:12.560Z,7.10
2023-04-22T04:29:49.596Z,7.20
2023-04-22T04:32:26.122Z,6.97
2023-04-22T04:34:54.732Z,6.30
2023-04-22T04:37:26.462Z,6.32
2023-04-22T04:40:07.756Z,6.63
2023-04-22T04:42:45.687Z,5.35
2023-04-22T04:45:20.030Z,6.13
2023-04-22T04:47:50.926Z,5.70
2023-04-22T04:50:23.931Z,5.35
2023-04-22T04:52:52.979Z,6.03
2023-04-22T04:55:26.802Z,5.85
2023-04-22T04:57:56.158Z,6.20
2023-04-22T05:00:24.268Z,5.53
2023-04-22T05:02:53.206Z,5.60
2023-04-22T05:05:21.208Z,5.80
2023-04-22T05:07:51.810Z,5.90
2023-04-22T05:10:21.555Z,5.40
2023-04-22T05:12:51.289Z,5.88
2023-04-22T05:15:23.640Z,5.47
2023-04-22T05:17:51.987Z,6.28
2023-04-22T05:20:20.095Z,6.15
2023-04-22T05:22:48.796Z,5.70
2023-04-22T05:25:17.947Z,5.80
2023-04-22T05:27:55.305Z,5.63
2023-04-22T05:30:25.491Z,4.70
2023-04-22T05:32:53.865Z,9.38
2023-04-22T05:35:21.750Z,5.25
2023-04-22T05:37:50.121Z,36.38
2023-04-22T05:40:18.438Z,5.10
2023-04-22T05:42:47.455Z,4.20
2023-04-22T05:45:15.861Z,4.90
2023-04-22T05:47:44.327Z,4.28
2023-04-22T05:50:12.346Z,4.22
2023-04-22T05:52:55.857Z,3.90
2023-04-22T05:55:24.425Z,3.60
2023-04-22T05:57:52.725Z,3.88
2023-04-22T06:00:35.356Z,3.30
2023-04-22T06:03:35.715Z,3.22
2023-04-22T06:06:04.507Z,2.78
2023-04-22T06:08:33.088Z,3.15
2023-04-22T06:11:00.973Z,3.15
2023-04-22T06:13:32.311Z,3.10
2023-04-22T06:16:01.549Z,3.08
2023-04-22T06:18:30.143Z,3.42
2023-04-22T06:20:59.707Z,2.58
2023-04-22T06:23:28.044Z,3.30
2023-04-22T06:25:58.571Z,2.70
2023-04-22T06:28:27.031Z,2.53
2023-04-22T06:30:57.696Z,3.38
2023-04-22T06:33:26.144Z,2.42
2023-04-22T06:35:54.323Z,2.40
2023-04-22T06:38:22.693Z,2.58
2023-04-22T06:41:10.782Z,2.40
2023-04-22T06:43:44.514Z,26.23
2023-04-22T06:46:31.303Z,2.20
2023-04-22T06:49:22.585Z,2.78
2023-04-22T06:52:06.439Z,2.40
2023-04-22T06:54:36.175Z,4.90
2023-04-22T06:57:04.184Z,2.22
2023-04-22T06:59:32.877Z,2.30
2023-04-22T07:02:00.974Z,2.70
2023-04-22T07:04:31.921Z,3.58
2023-04-22T07:07:01.194Z,2.58
2023-04-22T07:09:30.230Z,2.17
2023-04-22T07:11:59.051Z,2.58
2023-04-22T07:14:31.689Z,2.67
2023-04-22T07:17:00.358Z,5.15
2023-04-22T07:19:28.660Z,2.38
2023-04-22T07:21:56.682Z,2.20
2023-04-22T07:24:25.363Z,4.28
2023-04-22T07:26:53.557Z,2.60
2023-04-22T07:29:22.043Z,1.88
2023-04-22T07:31:49.865Z,2.03
2023-04-22T07:34:19.037Z,1.75
2023-04-22T07:36:47.703Z,1.90
2023-04-22T07:39:16.382Z,2.10
2023-04-22T07:41:44.613Z,2.10
2023-04-22T07:44:16.580Z,1.30
2023-04-22T07:46:44.775Z,1.30
2023-04-22T07:49:17.273Z,2.05
2023-04-22T07:51:45.846Z,2.47
2023-04-22T07:54:14.273Z,1.80
2023-04-22T07:56:42.208Z,2.60
2023-04-22T07:59:10.771Z,2.80
2023-04-22T08:01:38.985Z,3.00
2023-04-22T08:04:08.145Z,1.50
2023-04-22T08:06:36.613Z,3.05
2023-04-22T08:09:05.201Z,1.40
2023-04-22T08:11:33.284Z,3.08
2023-04-22T08:14:01.918Z,2.20
2023-04-22T08:16:30.217Z,2.78
2023-04-22T08:18:58.833Z,1.67
2023-04-22T08:21:28.437Z,2.92
2023-04-22T08:23:57.440Z,2.22
2023-04-22T08:26:25.927Z,1.45
2023-04-22T08:28:54.481Z,2.95
2023-04-22T08:31:22.815Z,1.88
2023-04-22T08:33:51.166Z,2.00
2023-04-22T08:36:22.920Z,1.83
2023-04-22T08:38:51.214Z,1.23
2023-04-22T08:41:21.203Z,1.92
2023-04-22T08:43:50.111Z,4.32
2023-04-22T08:46:21.302Z,1.58
2023-04-22T08:48:50.630Z,4.13
2023-04-22T08:51:18.982Z,1.20
2023-04-22T08:53:47.811Z,1.30
2023-04-22T08:56:15.813Z,3.85
2023-04-22T08:58:44.359Z,1.90
2023-04-22T09:01:13.697Z,1.67
2023-04-22T09:03:42.671Z,4.00
2023-04-22T09:06:12.026Z,24.45
2023-04-22T09:08:40.752Z,3.60
2023-04-22T09:11:09.454Z,2.80
2023-04-22T09:13:38.339Z,2.20
2023-04-22T09:16:07.751Z,5.15
2023-04-22T09:18:45.923Z,3.10
2023-04-22T09:21:14.158Z,2.05
2023-04-22T09:23:53.426Z,2.45
2023-04-22T09:26:23.502Z,1.35
2023-04-22T09:28:58.945Z,7.53
2023-04-22T09:31:28.465Z,2.88
2023-04-22T09:33:59.361Z,2.60
2023-04-22T09:36:29.252Z,1.20
2023-04-22T09:39:07.578Z,1.17
2023-04-22T09:41:40.196Z,4.72
2023-04-22T09:44:16.331Z,2.47
2023-04-22T09:46:45.400Z,5.10
2023-04-22T09:49:16.806Z,2.78
2023-04-22T09:51:44.729Z,1.52
2023-04-22T09:54:13.363Z,4.00
2023-04-22T09:56:48.778Z,3.97
2023-04-22T09:59:22.288Z,7.95
2023-04-22T10:01:52.970Z,2.00
2023-04-22T10:04:23.495Z,1.88
2023-04-22T10:06:54.314Z,4.47
2023-04-22T10:09:24.578Z,2.38
2023-04-22T10:11:55.215Z,2.60
2023-04-22T10:14:23.514Z,1.30
2023-04-22T10:16:59.058Z,1.40
2023-04-22T10:19:28.208Z,1.77
2023-04-22T10:22:02.551Z,1.23
2023-04-22T10:24:36.429Z,1.30
2023-04-22T10:27:10.881Z,1.92
2023-04-22T10:29:41.936Z,2.20
2023-04-22T10:32:26.189Z,1.60
2023-04-22T10:35:09.397Z,1.60
2023-04-22T10:37:40.076Z,1.30
2023-04-22T10:40:08.934Z,2.03
2023-04-22T10:42:41.468Z,1.67
2023-04-22T10:45:14.560Z,1.73
2023-04-22T10:47:43.261Z,2.58
2023-04-22T10:50:16.782Z,2.22
2023-04-22T10:52:48.768Z,1.45
2023-04-22T10:55:17.712Z,5.53
2023-04-22T10:57:48.154Z,1.50
2023-04-22T11:00:23.747Z,1.60
2023-04-22T11:05:27.029Z,2.38
2023-04-22T11:08:02.111Z,1.92
2023-04-22T11:13:02.307Z,1.90
2023-04-22T11:15:31.693Z,1.67
2023-04-22T11:17:59.719Z,3.50
2023-04-22T11:20:29.499Z,2.33
2023-04-22T11:22:58.575Z,3.47
2023-04-22T11:25:27.253Z,1.48
2023-04-22T11:27:55.417Z,1.90
2023-04-22T11:30:25.905Z,1.27
2023-04-22T11:32:55.713Z,1.30
2023-04-22T11:35:26.610Z,1.50
2023-04-22T11:37:56.506Z,2.45
2023-04-22T11:40:33.777Z,5.30
2023-04-22T11:43:05.653Z,2.53
2023-04-22T11:45:36.182Z,3.30
2023-04-22T11:48:06.874Z,1.80
2023-04-22T11:50:37.863Z,2.03
2023-04-22T11:53:16.178Z,1.40
2023-04-22T11:55:46.846Z,2.15
2023-04-22T11:58:18.099Z,1.58
2023-04-22T12:00:51.436Z,2.25
2023-04-22T12:03:27.964Z,1.73
2023-04-22T12:06:01.838Z,1.50
2023-04-22T12:08:42.395Z,1.10
2023-04-22T12:11:12.237Z,1.35
2023-04-22T12:13:41.695Z,1.40
2023-04-22T12:16:19.611Z,2.72
2023-04-22T12:18:55.633Z,1.25
2023-04-22T12:21:28.366Z,1.60
2023-04-22T12:24:08.013Z,1.60
2023-04-22T12:26:38.103Z,1.48
2023-04-22T12:29:06.381Z,6.03
2023-04-22T12:31:34.662Z,2.75
2023-04-22T12:34:04.311Z,1.55
2023-04-22T12:36:32.871Z,1.30
2023-04-22T12:39:00.849Z,2.33
2023-04-22T12:41:29.418Z,2.30
2023-04-22T12:43:57.435Z,3.10
2023-04-22T12:46:26.169Z,2.40
2023-04-22T12:48:54.244Z,2.42
2023-04-22T12:51:22.836Z,1.90
2023-04-22T12:53:51.195Z,2.08
2023-04-22T12:56:19.530Z,1.60
2023-04-22T12:58:48.346Z,4.18
2023-04-22T13:01:16.632Z,2.25
2023-04-22T13:03:45.113Z,1.67
2023-04-22T13:06:13.613Z,2.10
2023-04-22T13:08:41.610Z,2.10
2023-04-22T13:11:09.907Z,1.63
2023-04-22T13:13:37.812Z,3.28
2023-04-22T13:16:06.415Z,3.50
2023-04-22T13:18:34.605Z,2.15
2023-04-22T13:21:03.225Z,1.40
2023-04-22T13:23:32.842Z,2.13
2023-04-22T13:26:01.690Z,1.45
2023-04-22T13:28:29.491Z,2.17
2023-04-22T13:30:57.970Z,1.88
2023-04-22T13:33:25.886Z,3.78
2023-04-22T13:35:54.180Z,1.95
2023-04-22T13:38:22.304Z,4.88
2023-04-22T13:40:50.535Z,1.70
2023-04-22T13:43:18.858Z,2.05
2023-04-22T13:45:48.448Z,1.52
2023-04-22T13:48:16.554Z,1.50
2023-04-22T13:50:45.132Z,3.78
2023-04-22T13:53:14.252Z,1.63
2023-04-22T13:55:43.780Z,1.40
2023-04-22T13:58:11.739Z,2.05
2023-04-22T14:00:40.530Z,1.30
2023-04-22T14:03:08.634Z,1.20
2023-04-22T14:05:37.203Z,1.55
2023-04-22T14:08:05.182Z,1.70
2023-04-22T14:10:33.609Z,1.60
2023-04-22T14:13:01.574Z,1.92
2023-04-22T14:15:29.791Z,1.67
2023-04-22T14:17:57.883Z,5.18
2023-04-22T14:20:26.557Z,10.10
2023-04-22T14:22:54.568Z,4.00
2023-04-22T14:25:23.118Z,1.30
2023-04-22T14:27:51.478Z,1.63
2023-04-22T14:30:21.851Z,1.38
2023-04-22T14:32:50.501Z,1.83
2023-04-22T14:35:19.050Z,1.63
2023-04-22T14:37:47.173Z,1.77
2023-04-22T14:40:15.612Z,1.67
2023-04-22T14:42:43.589Z,2.22
2023-04-22T14:45:12.079Z,1.63
2023-04-22T14:47:40.107Z,1.67
2023-04-22T14:50:08.581Z,3.97
2023-04-22T14:52:36.839Z,6.18
2023-04-22T14:55:15.394Z,2.33
2023-04-22T14:57:52.384Z,2.03
2023-04-22T15:00:20.763Z,3.65
2023-04-22T15:02:48.971Z,1.75
2023-04-22T15:05:17.545Z,1.80
2023-04-22T15:07:45.714Z,2.15
2023-04-22T15:10:14.427Z,3.53
2023-04-22T15:12:42.558Z,6.00
2023-04-22T15:15:14.041Z,1.52
2023-04-22T15:17:43.294Z,1.27
2023-04-22T15:20:12.784Z,2.15
2023-04-22T15:22:41.222Z,8.90
2023-04-22T15:25:10.690Z,16.15
2023-04-22T15:27:48.125Z,2.03
2023-04-22T15:30:16.715Z,3.65
2023-04-22T15:32:44.829Z,6.15
2023-04-22T15:35:13.195Z,3.40
2023-04-22T15:37:41.217Z,2.50
2023-04-22T15:40:10.128Z,8.95
2023-04-22T15:42:38.193Z,1.40
2023-04-22T15:45:07.333Z,4.00
2023-04-22T15:47:36.502Z,7.15
2023-04-22T15:50:09.290Z,2.35
2023-04-22T15:52:38.654Z,3.90
2023-04-22T15:55:08.007Z,3.65
2023-04-22T15:57:36.242Z,5.43
2023-04-22T16:00:12.974Z,3.55
2023-04-22T16:02:44.776Z,14.77
2023-04-22T16:05:14.688Z,9.73
2023-04-22T16:07:43.429Z,6.72
2023-04-22T16:10:12.185Z,6.68
2023-04-22T16:12:40.318Z,11.73
2023-04-22T16:15:10.094Z,15.43
2023-04-22T16:17:38.665Z,12.40
2023-04-22T16:20:07.759Z,2.08
2023-04-22T16:22:36.380Z,7.45
2023-04-22T16:25:05.133Z,2.10
2023-04-22T16:27:33.102Z,4.57
2023-04-22T16:30:02.119Z,6.78
2023-04-22T16:32:30.528Z,6.20
2023-04-22T16:34:58.791Z,19.48
2023-04-22T16:37:27.521Z,22.33
2023-04-22T16:39:55.831Z,5.68
2023-04-22T16:42:23.750Z,2.42
2023-04-22T16:44:52.291Z,29.40
2023-04-22T16:47:20.439Z,37.88
2023-04-22T16:49:48.714Z,42.60
2023-04-22T16:52:16.918Z,71.30
2023-04-22T16:54:45.330Z,9.85
2023-04-22T16:57:13.296Z,5.15
2023-04-22T16:59:41.627Z,7.45
2023-04-22T17:02:10.127Z,10.93
2023-04-22T17:04:38.527Z,8.60
2023-04-22T17:07:06.444Z,4.00
2023-04-22T17:09:35.057Z,5.97
2023-04-22T17:12:03.143Z,8.63
2023-04-22T17:14:31.472Z,7.03
2023-04-22T17:16:59.854Z,10.60
2023-04-22T17:19:28.728Z,25.52
2023-04-22T17:21:56.716Z,14.02
2023-04-22T17:24:25.360Z,9.38
2023-04-22T17:26:53.231Z,4.38
2023-04-22T17:29:21.962Z,15.25
2023-04-22T17:31:51.068Z,30.70
2023-04-22T17:34:19.426Z,24.65
2023-04-22T17:36:47.416Z,79.47
2023-04-22T17:39:15.916Z,50.63
2023-04-22T17:41:44.275Z,32.25
2023-04-22T17:44:12.640Z,23.42
2023-04-22T17:46:41.800Z,32.00
2023-04-22T17:49:10.152Z,30.85
2023-04-22T17:51:38.153Z,27.00
2023-04-22T17:54:06.687Z,36.65
2023-04-22T17:56:34.708Z,39.88
2023-04-22T17:59:03.094Z,29.48
2023-04-22T18:01:31.209Z,25.27
2023-04-22T18:03:59.861Z,18.30
2023-04-22T18:06:29.290Z,15.70
2023-04-22T18:08:57.598Z,18.70
2023-04-22T18:11:25.945Z,25.65
2023-04-22T18:13:54.749Z,26.98
2023-04-22T18:16:23.037Z,26.00
2023-04-22T18:18:51.318Z,23.88
2023-04-22T18:21:19.363Z,16.13
2023-04-22T18:23:47.872Z,11.93
2023-04-22T18:26:15.862Z,18.60
2023-04-22T18:28:44.755Z,18.52
2023-04-22T18:31:12.930Z,27.02
2023-04-22T18:33:41.357Z,49.45
2023-04-22T18:36:09.619Z,57.05
2023-04-22T18:38:38.908Z,63.03
2023-04-22T18:41:07.096Z,62.17
2023-04-22T18:43:36.604Z,51.92
2023-04-22T18:46:04.693Z,44.38
2023-04-22T18:48:33.170Z,41.13
2023-04-22T18:51:01.741Z,38.75
2023-04-22T18:53:30.392Z,46.70
2023-04-22T18:55:58.388Z,75.80
2023-04-22T18:58:27.240Z,76.20
2023-04-22T19:00:55.657Z,80.35
2023-04-22T19:03:24.328Z,78.68
2023-04-22T19:05:52.457Z,80.22
2023-04-22T19:08:20.706Z,70.72
2023-04-22T19:10:48.708Z,73.53
2023-04-22T19:13:28.687Z,82.50
2023-04-22T19:15:58.258Z,79.15
2023-04-22T19:18:26.899Z,74.60
2023-04-22T19:20:55.039Z,71.50
2023-04-22T19:23:23.749Z,70.93
2023-04-22T19:25:51.894Z,67.90
2023-04-22T19:28:20.220Z,69.80
2023-04-22T19:30:48.337Z,80.03
2023-04-22T19:33:16.831Z,78.80
2023-04-22T19:35:45.251Z,65.40
2023-04-22T19:38:19.012Z,67.30
2023-04-22T19:40:47.604Z,65.57
2023-04-22T19:43:18.886Z,56.90
2023-04-22T19:45:46.872Z,49.80
2023-04-22T19:48:15.605Z,52.60
2023-04-22T19:50:45.076Z,36.80
2023-04-22T19:53:14.175Z,37.67
2023-04-22T19:55:43.362Z,58.78
2023-04-22T19:58:12.313Z,43.13
2023-04-22T20:00:40.436Z,25.67
2023-04-22T20:03:10.186Z,49.53
2023-04-22T20:05:38.691Z,64.47
2023-04-22T20:08:08.202Z,61.88
2023-04-22T20:10:37.972Z,35.58
2023-04-22T20:13:07.028Z,39.67
2023-04-22T20:15:35.133Z,46.47
2023-04-22T20:18:04.300Z,49.97
2023-04-22T20:20:32.422Z,48.33
2023-04-22T20:23:08.815Z,48.53
2023-04-22T20:25:42.062Z,47.97
2023-04-22T20:28:10.986Z,42.30
2023-04-22T20:30:39.545Z,24.92
2023-04-22T20:33:07.904Z,29.45
2023-04-22T20:35:38.316Z,16.15
2023-04-22T20:38:08.593Z,28.58
2023-04-22T20:40:36.890Z,27.25
2023-04-22T20:43:05.259Z,30.13
2023-04-22T20:45:33.259Z,26.63
2023-04-22T20:48:02.012Z,23.15
2023-04-22T20:50:33.516Z,22.42
2023-04-22T20:53:03.346Z,23.80
2023-04-22T20:55:31.791Z,24.73
2023-04-22T20:57:59.986Z,25.92
2023-04-22T21:00:27.927Z,21.95
2023-04-22T21:02:56.350Z,19.75
2023-04-22T21:05:24.925Z,20.77
2023-04-22T21:07:55.177Z,16.63
2023-04-22T21:10:23.922Z,18.73
2023-04-22T21:12:54.514Z,24.67
2023-04-22T21:15:22.790Z,25.40
2023-04-22T21:17:55.002Z,29.65
2023-04-22T21:20:24.789Z,35.35
2023-04-22T21:22:54.547Z,33.05
2023-04-22T21:25:23.500Z,32.17
2023-04-22T21:27:52.157Z,22.77
2023-04-22T21:30:20.667Z,44.25
2023-04-22T21:32:49.046Z,36.08
2023-04-22T21:35:17.710Z,45.42
2023-04-22T21:37:45.889Z,44.33
2023-04-22T21:40:13.896Z,42.85
2023-04-22T21:42:42.713Z,34.42
2023-04-22T21:45:10.893Z,37.70
2023-04-22T21:47:39.082Z,33.28
2023-04-22T21:50:07.809Z,33.92
2023-04-22T21:52:36.536Z,16.00
2023-04-22T21:55:05.154Z,28.13
2023-04-22T21:57:33.507Z,11.60
2023-04-22T22:00:01.431Z,13.43
2023-04-22T22:02:29.875Z,9.13
2023-04-22T22:04:57.902Z,10.77
2023-04-22T22:07:26.936Z,25.95
2023-04-22T22:09:56.076Z,25.67
2023-04-22T22:12:24.187Z,19.70
2023-04-22T22:14:52.165Z,14.18
2023-04-22T22:17:20.732Z,12.65
2023-04-22T22:19:48.799Z,8.02
2023-04-22T22:22:17.048Z,11.13
2023-04-22T22:24:45.669Z,8.70
2023-04-22T22:27:14.079Z,8.65
2023-04-22T22:29:42.037Z,7.85
2023-04-22T22:32:10.563Z,6.05
2023-04-22T22:34:38.920Z,6.20
2023-04-22T22:37:07.659Z,7.90
2023-04-22T22:39:36.344Z,7.80
2023-04-22T22:42:04.797Z,6.45
2023-04-22T22:44:32.909Z,6.15
2023-04-22T22:47:01.285Z,6.22
2023-04-22T22:49:29.263Z,7.15
2023-04-22T22:51:57.510Z,7.45
2023-04-22T22:54:25.547Z,8.10
2023-04-22T22:56:54.222Z,8.68
2023-04-22T22:59:22.030Z,9.85
2023-04-22T23:01:50.608Z,9.48
2023-04-22T23:04:18.940Z,8.30
2023-04-22T23:06:47.536Z,8.73
2023-04-22T23:09:19.042Z,8.70
2023-04-22T23:11:52.066Z,9.63
2023-04-22T23:14:20.212Z,9.15
2023-04-22T23:16:49.126Z,8.32
2023-04-22T23:19:18.261Z,8.15
2023-04-22T23:21:47.193Z,8.63
2023-04-22T23:24:15.846Z,7.88
2023-04-22T23:26:44.670Z,8.02
2023-04-22T23:29:12.936Z,7.93
2023-04-22T23:31:42.009Z,12.15
2023-04-22T23:34:10.784Z,10.40
2023-04-22T23:36:39.408Z,9.20
2023-04-22T23:39:09.780Z,13.68
2023-04-22T23:41:37.978Z,74.70
2023-04-22T23:44:06.587Z,39.17
2023-04-22T23:46:34.883Z,28.05
2023-04-22T23:49:02.885Z,13.73
2023-04-22T23:51:31.504Z,24.40
2023-04-22T23:53:59.540Z,22.10
2023-04-22T23:56:28.178Z,28.75
2023-04-22T23:58:56.428Z,17.63
